createdAt,value
2023-05-21T00:00:24.711Z,20.30
2023-05-21T00:01:25.821Z,23.50
2023-05-21T00:02:24.747Z,21.40
2023-05-21T00:03:24.744Z,19.30
2023-05-21T00:04:24.667Z,22.10
2023-05-21T00:05:24.690Z,19.00
2023-05-21T00:06:24.690Z,24.50
2023-05-21T00:07:24.648Z,18.80
2023-05-21T00:08:24.622Z,20.10
2023-05-21T00:09:24.605Z,20.10
2023-05-21T00:10:24.587Z,18.80
2023-05-21T00:11:24.604Z,19.50
2023-05-21T00:12:24.579Z,19.50
2023-05-21T00:13:24.598Z,21.30
2023-05-21T00:14:24.582Z,23.30
2023-05-21T00:15:24.655Z,19.70
2023-05-21T00:16:24.583Z,19.50
2023-05-21T00:17:24.549Z,23.10
2023-05-21T00:18:24.510Z,19.40
2023-05-21T00:19:24.581Z,22.00
2023-05-21T00:20:24.512Z,21.40
2023-05-21T00:21:24.482Z,20.50
2023-05-21T00:22:24.455Z,22.70
2023-05-21T00:23:24.446Z,19.60
2023-05-21T00:24:24.447Z,20.70
2023-05-21T00:25:24.438Z,22.10
2023-05-21T00:26:24.396Z,18.20
2023-05-21T00:27:24.401Z,19.30
2023-05-21T00:28:24.406Z,22.70
2023-05-21T00:29:24.372Z,20.10
2023-05-21T00:30:58.178Z,23.60
2023-05-21T00:31:24.455Z,22.60
2023-05-21T00:32:24.439Z,21.40
2023-05-21T00:33:24.356Z,21.20
2023-05-21T00:34:24.344Z,20.80
2023-05-21T00:35:24.393Z,20.90
2023-05-21T00:36:24.556Z,19.20
2023-05-21T00:37:30.234Z,19.40
2023-05-21T00:38:25.312Z,20.80
2023-05-21T00:39:24.273Z,21.60
2023-05-21T00:40:24.296Z,19.40
2023-05-21T00:41:24.259Z,19.80
2023-05-21T00:42:24.333Z,23.60
2023-05-21T00:43:24.227Z,21.20
2023-05-21T00:44:24.365Z,20.40
2023-05-21T00:45:24.208Z,23.20
2023-05-21T00:46:24.390Z,22.40
2023-05-21T00:47:24.264Z,21.30
2023-05-21T00:48:24.197Z,23.00
2023-05-21T00:49:24.160Z,20.90
2023-05-21T00:50:24.181Z,19.50
2023-05-21T00:51:24.112Z,20.10
2023-05-21T00:52:24.156Z,19.70
2023-05-21T00:53:24.167Z,21.50
2023-05-21T00:54:24.096Z,21.90
2023-05-21T00:55:24.151Z,23.40
2023-05-21T00:56:24.099Z,21.20
2023-05-21T00:57:24.095Z,20.10
2023-05-21T00:58:24.067Z,23.10
2023-05-21T00:59:24.095Z,20.00
2023-05-21T01:00:24.027Z,17.90
2023-05-21T01:01:24.038Z,22.60
2023-05-21T01:02:24.335Z,19.60
2023-05-21T01:03:24.282Z,28.40
2023-05-21T01:04:24.064Z,24.30
2023-05-21T01:05:23.991Z,20.70
2023-05-21T01:06:23.992Z,18.80
2023-05-21T01:07:23.960Z,23.70
2023-05-21T01:08:24.737Z,33.10
2023-05-21T01:09:23.908Z,21.40
2023-05-21T01:10:23.921Z,24.20
2023-05-21T01:11:23.998Z,27.70
2023-05-21T01:12:23.914Z,25.00
2023-05-21T01:13:23.927Z,22.50
2023-05-21T01:14:23.893Z,22.30
2023-05-21T01:15:23.857Z,22.30
2023-05-21T01:16:23.966Z,26.90
2023-05-21T01:17:23.844Z,23.70
2023-05-21T01:18:23.866Z,24.90
2023-05-21T01:19:23.883Z,22.80
2023-05-21T01:20:23.850Z,25.20
2023-05-21T01:21:23.789Z,20.50
2023-05-21T01:22:23.787Z,22.00
2023-05-21T01:23:23.882Z,27.10
2023-05-21T01:24:24.636Z,23.60
2023-05-21T01:25:23.736Z,24.80
2023-05-21T01:26:23.761Z,21.20
2023-05-21T01:27:23.724Z,29.00
2023-05-21T01:28:23.791Z,22.90
2023-05-21T01:29:23.737Z,25.50
2023-05-21T01:30:23.748Z,19.90
2023-05-21T01:31:23.739Z,28.50
2023-05-21T01:32:23.713Z,26.70
2023-05-21T01:33:23.770Z,26.10
2023-05-21T01:34:23.672Z,20.70
2023-05-21T01:35:23.693Z,24.10
2023-05-21T01:36:23.738Z,21.80
2023-05-21T01:37:23.653Z,22.80
2023-05-21T01:38:23.664Z,18.90
2023-05-21T01:39:23.665Z,23.50
2023-05-21T01:40:23.629Z,22.40
2023-05-21T01:41:23.674Z,20.10
2023-05-21T01:42:23.600Z,22.60
2023-05-21T01:43:23.662Z,24.10
2023-05-21T01:44:23.540Z,25.50
2023-05-21T01:45:23.578Z,28.00
2023-05-21T01:46:23.618Z,23.10
2023-05-21T01:47:23.632Z,29.30
2023-05-21T01:48:23.487Z,22.80
2023-05-21T01:49:24.576Z,23.60
2023-05-21T01:50:23.525Z,28.40
2023-05-21T01:51:23.531Z,24.60
2023-05-21T01:52:23.517Z,25.80
2023-05-21T01:53:23.491Z,30.20
2023-05-21T01:54:23.461Z,30.20
2023-05-21T01:55:23.418Z,26.30
2023-05-21T01:56:23.454Z,29.80
2023-05-21T01:57:23.433Z,34.50
2023-05-21T01:58:23.420Z,32.60
2023-05-21T01:59:23.396Z,37.20
2023-05-21T02:00:23.423Z,32.80
2023-05-21T02:01:23.351Z,32.90
2023-05-21T02:02:23.459Z,32.20
2023-05-21T02:03:24.339Z,36.90
2023-05-21T02:04:23.381Z,35.40
2023-05-21T02:05:23.368Z,37.30
2023-05-21T02:06:23.313Z,31.60
2023-05-21T02:07:23.382Z,30.90
2023-05-21T02:08:23.404Z,33.20
2023-05-21T02:09:24.173Z,31.10
2023-05-21T02:10:23.323Z,32.50
2023-05-21T02:11:23.261Z,34.70
2023-05-21T02:12:23.245Z,31.10
2023-05-21T02:13:25.764Z,32.60
2023-05-21T02:14:23.274Z,29.40
2023-05-21T02:15:23.299Z,33.20
2023-05-21T02:16:23.319Z,30.20
2023-05-21T02:17:23.265Z,25.60
2023-05-21T02:18:23.281Z,26.90
2023-05-21T02:19:23.256Z,28.90
2023-05-21T02:20:23.196Z,28.00
2023-05-21T02:21:23.150Z,28.70
2023-05-21T02:22:23.200Z,25.20
2023-05-21T02:23:23.200Z,28.80
2023-05-21T02:24:23.200Z,32.60
2023-05-21T02:25:23.227Z,29.80
2023-05-21T02:26:23.123Z,27.20
2023-05-21T02:27:23.136Z,24.60
2023-05-21T02:28:23.139Z,25.20
2023-05-21T02:29:23.116Z,28.30
2023-05-21T02:30:23.043Z,26.40
2023-05-21T02:31:23.071Z,26.50
2023-05-21T02:32:23.060Z,25.00
2023-05-21T02:33:23.042Z,29.50
2023-05-21T02:34:23.145Z,29.00
2023-05-21T02:35:23.110Z,28.00
2023-05-21T02:36:23.005Z,26.80
2023-05-21T02:37:22.994Z,28.10
2023-05-21T02:38:23.049Z,28.70
2023-05-21T02:39:22.943Z,28.20
2023-05-21T02:40:22.978Z,27.10
2023-05-21T02:41:22.965Z,24.50
2023-05-21T02:42:22.947Z,25.10
2023-05-21T02:43:22.933Z,24.80
2023-05-21T02:44:22.885Z,26.00
2023-05-21T02:45:22.910Z,29.60
2023-05-21T02:46:22.952Z,30.40
2023-05-21T02:47:22.887Z,27.60
2023-05-21T02:48:22.933Z,27.70
2023-05-21T02:49:22.892Z,27.50
2023-05-21T02:50:22.839Z,27.60
2023-05-21T02:51:23.868Z,26.10
2023-05-21T02:52:22.805Z,30.60
2023-05-21T02:53:22.829Z,24.90
2023-05-21T02:54:22.783Z,25.40
2023-05-21T02:55:22.729Z,26.40
2023-05-21T02:56:22.809Z,30.80
2023-05-21T02:57:22.765Z,30.60
2023-05-21T02:58:22.754Z,29.10
2023-05-21T02:59:22.734Z,28.90
2023-05-21T03:00:22.777Z,27.30
2023-05-21T03:01:22.809Z,31.10
2023-05-21T03:02:22.962Z,30.20
2023-05-21T03:03:22.878Z,29.20
2023-05-21T03:04:22.921Z,33.40
2023-05-21T03:05:22.807Z,29.50
2023-05-21T03:06:22.669Z,30.70
2023-05-21T03:07:22.666Z,34.80
2023-05-21T03:08:22.620Z,31.70
2023-05-21T03:09:22.720Z,29.70
2023-05-21T03:10:22.661Z,30.10
2023-05-21T03:11:22.618Z,29.80
2023-05-21T03:12:22.597Z,32.40
2023-05-21T03:13:23.383Z,31.20
2023-05-21T03:14:22.537Z,30.80
2023-05-21T03:15:22.577Z,40.60
2023-05-21T03:16:23.329Z,26.20
2023-05-21T03:17:23.541Z,26.80
2023-05-21T03:18:22.533Z,28.40
2023-05-21T03:19:22.555Z,29.60
2023-05-21T03:20:22.533Z,30.40
2023-05-21T03:21:22.499Z,26.80
2023-05-21T03:22:22.487Z,31.50
2023-05-21T03:23:22.436Z,29.90
2023-05-21T03:24:22.447Z,27.50
2023-05-21T03:25:22.459Z,31.00
2023-05-21T03:26:22.417Z,29.70
2023-05-21T03:27:22.403Z,32.30
2023-05-21T03:28:23.220Z,31.80
2023-05-21T03:29:22.388Z,28.00
2023-05-21T03:30:22.791Z,29.30
2023-05-21T03:31:22.489Z,31.80
2023-05-21T03:32:22.581Z,32.00
2023-05-21T03:33:22.362Z,30.70
2023-05-21T03:34:22.335Z,29.40
2023-05-21T03:35:22.348Z,34.00
2023-05-21T03:36:22.318Z,30.90
2023-05-21T03:37:22.317Z,30.60
2023-05-21T03:38:22.291Z,29.40
2023-05-21T03:39:22.304Z,31.80
2023-05-21T03:40:22.379Z,31.60
2023-05-21T03:41:22.266Z,35.10
2023-05-21T03:42:22.335Z,31.30
2023-05-21T03:43:23.246Z,34.70
2023-05-21T03:44:22.214Z,34.10
2023-05-21T03:45:22.224Z,36.70
2023-05-21T03:46:22.228Z,32.40
2023-05-21T03:47:22.210Z,30.90
2023-05-21T03:48:22.236Z,30.60
2023-05-21T03:49:22.234Z,30.80
2023-05-21T03:50:22.215Z,35.90
2023-05-21T03:51:22.175Z,32.20
2023-05-21T03:52:22.127Z,30.10
2023-05-21T03:53:22.150Z,31.10
2023-05-21T03:54:22.115Z,33.30
2023-05-21T03:55:22.105Z,30.80
2023-05-21T03:56:22.144Z,36.60
2023-05-21T03:57:22.094Z,33.30
2023-05-21T03:58:22.058Z,30.80
2023-05-21T03:59:22.075Z,30.80
2023-05-21T04:00:22.049Z,29.60
2023-05-21T04:01:22.097Z,33.80
2023-05-21T04:02:22.114Z,32.10
2023-05-21T04:03:22.161Z,29.10
2023-05-21T04:04:22.040Z,32.70
2023-05-21T04:05:22.015Z,31.30
2023-05-21T04:06:21.965Z,31.10
2023-05-21T04:07:21.963Z,37.40
2023-05-21T04:08:21.991Z,36.40
2023-05-21T04:09:21.950Z,31.50
2023-05-21T04:10:22.020Z,31.30
2023-05-21T04:11:22.084Z,32.50
2023-05-21T04:12:21.960Z,31.80
2023-05-21T04:13:21.920Z,31.90
2023-05-21T04:14:21.891Z,35.10
2023-05-21T04:15:21.863Z,31.30
2023-05-21T04:16:21.911Z,33.90
2023-05-21T04:17:21.957Z,32.30
2023-05-21T04:18:22.843Z,33.10
2023-05-21T04:19:21.889Z,29.20
2023-05-21T04:20:21.830Z,34.20
2023-05-21T04:21:21.787Z,33.50
2023-05-21T04:22:21.782Z,33.70
2023-05-21T04:23:22.739Z,32.50
2023-05-21T04:24:22.783Z,33.10
2023-05-21T04:25:21.741Z,30.90
2023-05-21T04:26:21.741Z,38.40
2023-05-21T04:27:21.724Z,30.50
2023-05-21T04:28:21.734Z,28.70
2023-05-21T04:29:21.904Z,33.80
2023-05-21T04:30:21.699Z,31.80
2023-05-21T04:31:21.735Z,34.10
2023-05-21T04:32:21.715Z,36.70
2023-05-21T04:33:21.672Z,31.80
2023-05-21T04:34:21.685Z,35.70
2023-05-21T04:35:21.714Z,33.00
2023-05-21T04:36:21.656Z,35.40
2023-05-21T04:37:21.599Z,34.80
2023-05-21T04:38:21.674Z,30.80
2023-05-21T04:39:21.848Z,32.80
2023-05-21T04:40:21.667Z,34.30
2023-05-21T04:41:21.666Z,32.90
2023-05-21T04:42:21.600Z,29.80
2023-05-21T04:43:21.577Z,31.50
2023-05-21T04:44:21.653Z,31.80
2023-05-21T04:45:21.574Z,32.80
2023-05-21T04:46:21.561Z,29.90
2023-05-21T04:47:21.561Z,32.40
2023-05-21T04:48:21.530Z,33.80
2023-05-21T04:49:21.537Z,33.20
2023-05-21T04:50:21.578Z,31.40
2023-05-21T04:51:21.483Z,32.00
2023-05-21T04:52:21.461Z,30.00
2023-05-21T04:53:21.532Z,31.70
2023-05-21T04:54:21.463Z,32.30
2023-05-21T04:55:21.434Z,34.80
2023-05-21T04:56:21.487Z,35.40
2023-05-21T04:57:21.455Z,37.80
2023-05-21T04:58:21.464Z,32.30
2023-05-21T04:59:21.495Z,29.40
2023-05-21T05:00:21.422Z,33.30
2023-05-21T05:01:21.423Z,32.20
2023-05-21T05:02:21.423Z,30.90
2023-05-21T05:03:21.403Z,31.10
2023-05-21T05:04:21.356Z,36.60
2023-05-21T05:05:21.354Z,32.90
2023-05-21T05:06:21.370Z,32.00
2023-05-21T05:07:21.308Z,30.70
2023-05-21T05:08:21.310Z,33.10
2023-05-21T05:09:21.342Z,34.70
2023-05-21T05:10:21.303Z,31.60
2023-05-21T05:11:21.351Z,34.20
2023-05-21T05:12:22.260Z,29.20
2023-05-21T05:13:21.321Z,34.20
2023-05-21T05:14:21.248Z,35.50
2023-05-21T05:15:21.282Z,32.60
2023-05-21T05:16:21.250Z,31.80
2023-05-21T05:17:21.230Z,33.90
2023-05-21T05:18:21.221Z,31.90
2023-05-21T05:19:21.230Z,32.30
2023-05-21T05:20:21.164Z,31.30
2023-05-21T05:21:21.272Z,32.70
2023-05-21T05:22:21.254Z,34.20
2023-05-21T05:23:21.757Z,36.40
2023-05-21T05:24:21.133Z,34.20
2023-05-21T05:25:21.082Z,34.70
2023-05-21T05:26:21.094Z,32.60
2023-05-21T05:27:21.129Z,32.50
2023-05-21T05:28:21.050Z,31.90
2023-05-21T05:29:21.065Z,41.30
2023-05-21T05:30:21.077Z,30.40
2023-05-21T05:31:21.190Z,28.40
2023-05-21T05:32:21.091Z,33.20
2023-05-21T05:33:21.009Z,32.50
2023-05-21T05:34:21.059Z,34.20
2023-05-21T05:35:21.007Z,31.90
2023-05-21T05:36:21.006Z,30.80
2023-05-21T05:37:21.002Z,32.40
2023-05-21T05:38:20.948Z,32.40
2023-05-21T05:39:20.989Z,30.70
2023-05-21T05:40:20.940Z,29.30
2023-05-21T05:41:20.905Z,32.70
2023-05-21T05:42:20.977Z,29.50
2023-05-21T05:43:22.203Z,30.60
2023-05-21T05:44:20.883Z,31.60
2023-05-21T05:45:20.909Z,29.30
2023-05-21T05:46:20.891Z,33.80
2023-05-21T05:47:20.860Z,29.90
2023-05-21T05:48:20.917Z,29.90
2023-05-21T05:49:20.837Z,30.60
2023-05-21T05:50:20.787Z,30.90
2023-05-21T05:51:20.827Z,29.10
2023-05-21T05:52:20.821Z,29.40
2023-05-21T05:53:20.792Z,28.90
2023-05-21T05:54:20.750Z,33.70
2023-05-21T05:55:20.772Z,30.40
2023-05-21T05:56:20.833Z,33.60
2023-05-21T05:57:20.760Z,32.50
2023-05-21T05:58:20.744Z,29.50
2023-05-21T05:59:20.801Z,32.90
2023-05-21T06:00:20.745Z,28.10
2023-05-21T06:01:20.689Z,29.10
2023-05-21T06:02:20.787Z,28.30
2023-05-21T06:03:20.762Z,34.90
2023-05-21T06:04:20.737Z,31.40
2023-05-21T06:05:20.713Z,28.90
2023-05-21T06:06:20.827Z,31.40
2023-05-21T06:07:20.687Z,32.40
2023-05-21T06:08:20.629Z,30.20
2023-05-21T06:09:20.724Z,29.20
2023-05-21T06:10:20.763Z,30.50
2023-05-21T06:11:20.712Z,37.10
2023-05-21T06:12:20.628Z,34.90
2023-05-21T06:13:20.555Z,32.00
2023-05-21T06:14:20.547Z,30.90
2023-05-21T06:15:20.587Z,31.60
2023-05-21T06:16:20.590Z,34.30
2023-05-21T06:17:54.099Z,31.90
2023-05-21T06:18:20.514Z,30.70
2023-05-21T06:19:20.549Z,28.80
2023-05-21T06:20:20.579Z,30.20
2023-05-21T06:21:21.562Z,30.20
2023-05-21T06:22:20.483Z,31.40
2023-05-21T06:23:20.439Z,30.40
2023-05-21T06:24:20.460Z,30.10
2023-05-21T06:25:20.397Z,29.00
2023-05-21T06:26:20.413Z,31.70
2023-05-21T06:27:20.503Z,31.30
2023-05-21T06:28:20.412Z,30.60
2023-05-21T06:29:20.439Z,32.70
2023-05-21T06:30:20.401Z,36.80
2023-05-21T06:31:20.407Z,31.80
2023-05-21T06:32:20.384Z,31.40
2023-05-21T06:33:20.560Z,31.10
2023-05-21T06:34:20.388Z,33.20
2023-05-21T06:35:20.438Z,28.90
2023-05-21T06:36:20.489Z,31.80
2023-05-21T06:37:20.354Z,29.70
2023-05-21T06:38:20.337Z,30.60
2023-05-21T06:39:20.275Z,32.20
2023-05-21T06:40:20.275Z,31.40
2023-05-21T06:41:20.295Z,29.00
2023-05-21T06:42:20.318Z,30.70
2023-05-21T06:43:20.230Z,30.30
2023-05-21T06:44:20.262Z,31.50
2023-05-21T06:45:20.205Z,32.80
2023-05-21T06:46:20.316Z,33.20
2023-05-21T06:47:20.236Z,33.00
2023-05-21T06:48:20.154Z,29.10
2023-05-21T06:49:20.224Z,29.50
2023-05-21T06:50:20.174Z,31.80
2023-05-21T06:51:20.175Z,30.30
2023-05-21T06:52:20.171Z,30.90
2023-05-21T06:53:20.141Z,33.10
2023-05-21T06:54:20.134Z,31.40
2023-05-21T06:55:20.087Z,28.00
2023-05-21T06:56:20.124Z,28.80
2023-05-21T06:57:20.141Z,28.10
2023-05-21T06:58:20.043Z,31.90
2023-05-21T06:59:20.081Z,31.80
2023-05-21T07:00:20.046Z,31.70
2023-05-21T07:01:20.109Z,28.90
2023-05-21T07:02:20.177Z,31.00
2023-05-21T07:03:20.287Z,29.20
2023-05-21T07:04:20.060Z,28.00
2023-05-21T07:05:19.992Z,31.10
2023-05-21T07:06:20.042Z,32.40
2023-05-21T07:07:19.949Z,35.10
2023-05-21T07:08:20.701Z,29.90
2023-05-21T07:09:19.967Z,33.60
2023-05-21T07:10:19.983Z,31.30
2023-05-21T07:11:19.925Z,34.10
2023-05-21T07:12:20.109Z,31.30
2023-05-21T07:13:19.899Z,32.80
2023-05-21T07:14:19.898Z,29.00
2023-05-21T07:15:19.918Z,29.20
2023-05-21T07:16:19.919Z,26.00
2023-05-21T07:17:19.972Z,29.50
2023-05-21T07:18:19.917Z,31.80
2023-05-21T07:19:19.880Z,26.60
2023-05-21T07:20:19.793Z,28.00
2023-05-21T07:21:19.851Z,30.70
2023-05-21T07:22:19.852Z,27.60
2023-05-21T07:23:19.761Z,25.20
2023-05-21T07:24:19.832Z,26.40
2023-05-21T07:25:19.782Z,29.40
2023-05-21T07:26:19.788Z,26.10
2023-05-21T07:27:25.794Z,29.80
2023-05-21T07:28:21.744Z,28.30
2023-05-21T07:29:19.745Z,32.00
2023-05-21T07:30:19.750Z,26.20
2023-05-21T07:31:19.723Z,28.90
2023-05-21T07:32:19.653Z,30.60
2023-05-21T07:33:19.741Z,30.40
2023-05-21T07:34:19.677Z,27.40
2023-05-21T07:35:19.720Z,33.90
2023-05-21T07:36:20.312Z,26.20
2023-05-21T07:37:19.746Z,27.70
2023-05-21T07:38:19.628Z,26.40
2023-05-21T07:39:19.584Z,26.70
2023-05-21T07:40:19.573Z,27.10
2023-05-21T07:41:19.608Z,30.10
2023-05-21T07:42:19.560Z,28.30
2023-05-21T07:43:19.599Z,27.80
2023-05-21T07:44:19.553Z,28.20
2023-05-21T07:45:19.603Z,27.60
2023-05-21T07:46:19.571Z,30.80
2023-05-21T07:47:19.540Z,26.30
2023-05-21T07:48:19.629Z,26.70
2023-05-21T07:49:19.495Z,27.30
2023-05-21T07:50:19.566Z,28.30
2023-05-21T07:51:19.525Z,30.40
2023-05-21T07:52:19.471Z,28.30
2023-05-21T07:53:19.505Z,27.10
2023-05-21T07:54:19.505Z,26.00
2023-05-21T07:55:19.487Z,29.90
2023-05-21T07:56:19.377Z,29.50
2023-05-21T07:57:19.433Z,24.60
2023-05-21T07:58:19.458Z,28.50
2023-05-21T07:59:19.442Z,26.00
2023-05-21T08:00:19.400Z,25.20
2023-05-21T08:01:19.409Z,24.80
2023-05-21T08:02:19.497Z,24.30
2023-05-21T08:03:19.469Z,25.00
2023-05-21T08:04:19.525Z,26.60
2023-05-21T08:05:20.396Z,24.90
2023-05-21T08:06:19.357Z,25.90
2023-05-21T08:07:19.344Z,28.20
2023-05-21T08:08:19.307Z,28.10
2023-05-21T08:09:19.309Z,25.90
2023-05-21T08:10:19.641Z,25.90
2023-05-21T08:11:20.281Z,25.30
2023-05-21T08:12:19.272Z,26.90
2023-05-21T08:13:19.244Z,29.40
2023-05-21T08:14:19.237Z,27.60
2023-05-21T08:15:19.190Z,25.20
2023-05-21T08:16:19.235Z,23.80
2023-05-21T08:17:19.156Z,22.70
2023-05-21T08:18:19.165Z,26.20
2023-05-21T08:19:19.363Z,26.40
2023-05-21T08:20:19.172Z,26.10
2023-05-21T08:21:19.186Z,25.80
2023-05-21T08:22:19.164Z,26.40
2023-05-21T08:23:19.131Z,25.50
2023-05-21T08:24:19.088Z,25.90
2023-05-21T08:25:19.253Z,25.20
2023-05-21T08:26:19.166Z,24.00
2023-05-21T08:27:19.116Z,26.70
2023-05-21T08:28:19.114Z,26.40
2023-05-21T08:29:19.125Z,29.40
2023-05-21T08:30:19.024Z,25.50
2023-05-21T08:31:19.163Z,23.90
2023-05-21T08:32:19.069Z,24.40
2023-05-21T08:33:20.983Z,26.40
2023-05-21T08:34:20.294Z,26.60
2023-05-21T08:35:19.299Z,24.80
2023-05-21T08:36:18.948Z,26.80
2023-05-21T08:37:19.007Z,26.00
2023-05-21T08:38:19.141Z,30.10
2023-05-21T08:39:19.282Z,25.40
2023-05-21T08:40:20.531Z,26.00
2023-05-21T08:41:19.151Z,29.20
2023-05-21T08:42:32.961Z,26.40
2023-05-21T08:43:20.964Z,24.30
2023-05-21T08:44:19.160Z,22.90
2023-05-21T08:45:18.979Z,26.60
2023-05-21T08:46:19.107Z,27.80
2023-05-21T08:47:19.070Z,25.70
2023-05-21T08:48:18.880Z,24.50
2023-05-21T08:49:18.881Z,26.60
2023-05-21T08:50:18.874Z,26.30
2023-05-21T08:51:18.805Z,25.20
2023-05-21T08:52:18.807Z,28.10
2023-05-21T08:53:27.380Z,23.60
2023-05-21T08:54:20.781Z,27.50
2023-05-21T08:55:19.240Z,25.40
2023-05-21T08:56:18.791Z,24.90
2023-05-21T08:57:18.795Z,22.10
2023-05-21T08:58:18.750Z,27.30
2023-05-21T08:59:18.749Z,26.80
2023-05-21T09:00:18.750Z,25.50
2023-05-21T09:01:18.725Z,25.10
2023-05-21T09:02:18.757Z,27.00
2023-05-21T09:03:18.857Z,27.80
2023-05-21T09:04:20.745Z,27.10
2023-05-21T09:05:19.757Z,24.70
2023-05-21T09:06:18.645Z,25.20
2023-05-21T09:07:18.627Z,25.40
2023-05-21T09:08:18.617Z,24.50
2023-05-21T09:09:52.029Z,24.30
2023-05-21T09:10:18.656Z,25.20
2023-05-21T09:11:18.711Z,26.00
2023-05-21T09:12:18.624Z,25.40
2023-05-21T09:13:18.648Z,28.00
2023-05-21T09:14:18.571Z,28.40
2023-05-21T09:15:18.601Z,28.10
2023-05-21T09:16:18.555Z,25.30
2023-05-21T09:17:18.511Z,27.00
2023-05-21T09:18:18.623Z,26.10
2023-05-21T09:19:18.593Z,28.50
2023-05-21T09:20:18.509Z,25.30
2023-05-21T09:21:18.558Z,23.30
2023-05-21T09:22:18.562Z,27.30
2023-05-21T09:23:18.499Z,27.30
2023-05-21T09:24:18.549Z,22.00
2023-05-21T09:25:18.485Z,24.90
2023-05-21T09:26:18.512Z,24.60
2023-05-21T09:27:18.427Z,24.60
2023-05-21T09:28:18.395Z,27.30
2023-05-21T09:29:18.458Z,27.30
2023-05-21T09:30:18.465Z,23.00
2023-05-21T09:31:18.415Z,25.10
2023-05-21T09:32:18.326Z,23.60
2023-05-21T09:33:18.974Z,24.20
2023-05-21T09:34:18.405Z,23.70
2023-05-21T09:35:18.317Z,22.50
2023-05-21T09:36:18.339Z,27.30
2023-05-21T09:37:27.194Z,24.50
2023-05-21T09:38:20.366Z,26.50
2023-05-21T09:39:18.273Z,23.20
2023-05-21T09:40:18.376Z,22.50
2023-05-21T09:41:26.260Z,25.30
2023-05-21T09:42:19.261Z,24.40
2023-05-21T09:43:25.424Z,23.30
2023-05-21T09:44:19.257Z,24.20
2023-05-21T09:45:18.207Z,24.30
2023-05-21T09:46:18.951Z,23.30
2023-05-21T09:47:18.329Z,24.70
2023-05-21T09:48:18.217Z,24.90
2023-05-21T09:49:18.201Z,24.50
2023-05-21T09:50:18.188Z,20.90
2023-05-21T09:51:18.195Z,22.10
2023-05-21T09:52:18.116Z,23.50
2023-05-21T09:53:18.109Z,23.20
2023-05-21T09:54:18.573Z,21.70
2023-05-21T09:55:18.072Z,25.50
2023-05-21T09:56:18.128Z,26.60
2023-05-21T09:57:18.071Z,25.10
2023-05-21T09:58:18.052Z,24.70
2023-05-21T09:59:18.059Z,26.40
2023-05-21T10:00:18.074Z,23.90
2023-05-21T10:01:18.074Z,22.80
2023-05-21T10:02:18.099Z,22.10
2023-05-21T10:03:18.110Z,22.10
2023-05-21T10:04:17.969Z,22.70
2023-05-21T10:05:17.968Z,21.90
2023-05-21T10:06:18.005Z,21.20
2023-05-21T10:07:17.940Z,26.00
2023-05-21T10:08:17.969Z,23.00
2023-05-21T10:09:18.013Z,22.70
2023-05-21T10:10:17.910Z,23.50
2023-05-21T10:11:17.933Z,23.20
2023-05-21T10:12:17.921Z,22.90
2023-05-21T10:13:17.906Z,21.50
2023-05-21T10:14:17.877Z,20.70
2023-05-21T10:15:17.900Z,22.60
2023-05-21T10:16:17.904Z,21.20
2023-05-21T10:17:17.858Z,22.50
2023-05-21T10:18:17.859Z,24.20
2023-05-21T10:19:17.909Z,21.40
2023-05-21T10:20:17.855Z,21.30
2023-05-21T10:21:17.777Z,21.30
2023-05-21T10:22:17.771Z,25.90
2023-05-21T10:23:18.267Z,22.80
2023-05-21T10:24:17.782Z,21.70
2023-05-21T10:25:17.799Z,22.00
2023-05-21T10:26:17.817Z,21.80
2023-05-21T10:27:17.831Z,21.10
2023-05-21T10:28:17.738Z,22.90
2023-05-21T10:29:19.428Z,21.70
2023-05-21T10:30:17.747Z,22.50
2023-05-21T10:31:17.716Z,19.70
2023-05-21T10:32:17.810Z,23.80
2023-05-21T10:33:17.732Z,23.00
2023-05-21T10:34:17.683Z,24.60
2023-05-21T10:35:17.669Z,23.20
2023-05-21T10:36:17.631Z,24.20
2023-05-21T10:37:17.678Z,24.70
2023-05-21T10:38:17.631Z,18.20
2023-05-21T10:39:17.633Z,18.40
2023-05-21T10:40:17.659Z,19.90
2023-05-21T10:41:17.646Z,20.20
2023-05-21T10:42:17.670Z,21.50
2023-05-21T10:43:17.614Z,18.80
2023-05-21T10:44:17.558Z,17.70
2023-05-21T10:45:17.625Z,17.50
2023-05-21T10:46:17.598Z,19.10
2023-05-21T10:47:17.552Z,19.30
2023-05-21T10:48:17.674Z,17.40
2023-05-21T10:49:17.528Z,17.60
2023-05-21T10:50:17.519Z,18.00
2023-05-21T10:51:17.524Z,19.50
2023-05-21T10:52:17.510Z,21.50
2023-05-21T10:53:17.524Z,17.10
2023-05-21T10:54:17.502Z,18.40
2023-05-21T10:55:17.499Z,21.90
2023-05-21T10:56:17.606Z,20.10
2023-05-21T10:57:17.480Z,18.20
2023-05-21T10:58:17.424Z,21.60
2023-05-21T10:59:17.462Z,18.10
2023-05-21T11:00:17.440Z,19.20
2023-05-21T11:01:17.465Z,19.30
2023-05-21T11:02:17.436Z,17.90
2023-05-21T11:03:17.460Z,20.20
2023-05-21T11:04:17.403Z,17.50
2023-05-21T11:05:17.348Z,18.20
2023-05-21T11:06:17.338Z,16.60
2023-05-21T11:07:17.358Z,20.00
2023-05-21T11:08:17.321Z,17.20
2023-05-21T11:09:17.335Z,17.40
2023-05-21T11:10:17.326Z,19.00
2023-05-21T11:11:17.352Z,15.70
2023-05-21T11:12:17.271Z,18.00
2023-05-21T11:13:17.241Z,16.90
2023-05-21T11:14:18.364Z,18.50
2023-05-21T11:15:18.237Z,17.80
2023-05-21T11:16:17.235Z,17.30
2023-05-21T11:17:17.267Z,16.60
2023-05-21T11:18:17.204Z,17.40
2023-05-21T11:19:17.270Z,17.80
2023-05-21T11:20:17.218Z,17.70
2023-05-21T11:21:18.264Z,15.40
2023-05-21T11:22:17.156Z,16.40
2023-05-21T11:23:17.146Z,16.30
2023-05-21T11:24:17.192Z,19.50
2023-05-21T11:25:17.138Z,19.40
2023-05-21T11:26:17.211Z,16.00
2023-05-21T11:27:17.139Z,16.60
2023-05-21T11:28:17.108Z,18.20
2023-05-21T11:29:17.115Z,15.80
2023-05-21T11:30:17.176Z,18.30
2023-05-21T11:31:17.101Z,18.10
2023-05-21T11:32:17.096Z,15.10
2023-05-21T11:33:17.070Z,17.00
2023-05-21T11:34:17.068Z,16.10
2023-05-21T11:35:17.037Z,17.40
2023-05-21T11:36:17.047Z,18.60
2023-05-21T11:37:17.022Z,16.60
2023-05-21T11:38:17.013Z,18.30
2023-05-21T11:39:16.969Z,15.00
2023-05-21T11:40:20.416Z,17.00
2023-05-21T11:41:17.800Z,18.20
2023-05-21T11:42:16.975Z,16.80
2023-05-21T11:43:16.929Z,17.40
2023-05-21T11:44:16.904Z,18.10
2023-05-21T11:45:16.893Z,15.80
2023-05-21T11:46:17.003Z,16.00
2023-05-21T11:47:16.884Z,16.90
2023-05-21T11:48:16.860Z,17.50
2023-05-21T11:49:16.872Z,17.70
2023-05-21T11:50:16.835Z,16.30
2023-05-21T11:51:16.892Z,15.80
2023-05-21T11:52:16.955Z,17.50
2023-05-21T11:53:16.801Z,17.50
2023-05-21T11:54:16.840Z,18.20
2023-05-21T11:55:16.841Z,17.80
2023-05-21T11:56:16.799Z,19.40
2023-05-21T11:57:16.834Z,15.80
2023-05-21T11:58:16.851Z,17.70
2023-05-21T11:59:18.628Z,16.80
2023-05-21T12:00:17.754Z,18.10
2023-05-21T12:01:16.741Z,19.00
2023-05-21T12:02:49.230Z,16.10
2023-05-21T12:03:16.848Z,17.60
2023-05-21T12:04:16.739Z,14.10
2023-05-21T12:05:16.891Z,15.20
2023-05-21T12:06:16.737Z,17.10
2023-05-21T12:07:16.688Z,15.30
2023-05-21T12:08:16.931Z,15.30
2023-05-21T12:09:16.650Z,21.10
2023-05-21T12:10:16.800Z,16.30
2023-05-21T12:11:16.633Z,15.60
2023-05-21T12:12:16.622Z,17.10
2023-05-21T12:13:16.591Z,16.80
2023-05-21T12:14:16.583Z,17.10
2023-05-21T12:15:16.657Z,15.50
2023-05-21T12:16:16.594Z,15.30
2023-05-21T12:17:16.591Z,15.60
2023-05-21T12:18:16.609Z,15.80
2023-05-21T12:19:16.577Z,15.10
2023-05-21T12:20:16.665Z,15.60
2023-05-21T12:21:16.538Z,15.40
2023-05-21T12:22:16.544Z,16.90
2023-05-21T12:23:16.519Z,18.50
2023-05-21T12:24:16.531Z,14.00
2023-05-21T12:25:16.469Z,15.00
2023-05-21T12:26:16.511Z,11.60
2023-05-21T12:27:16.441Z,13.70
2023-05-21T12:28:16.415Z,15.30
2023-05-21T12:29:16.417Z,15.50
2023-05-21T12:30:16.398Z,14.80
2023-05-21T12:31:16.431Z,14.50
2023-05-21T12:32:16.376Z,16.40
2023-05-21T12:33:16.419Z,16.30
2023-05-21T12:34:16.344Z,14.10
2023-05-21T12:35:16.459Z,14.20
2023-05-21T12:36:16.330Z,17.00
2023-05-21T12:37:16.462Z,14.50
2023-05-21T12:38:16.349Z,16.10
2023-05-21T12:39:16.322Z,14.00
2023-05-21T12:40:17.629Z,17.30
2023-05-21T12:41:16.260Z,13.80
2023-05-21T12:42:16.283Z,16.10
2023-05-21T12:43:16.275Z,13.20
2023-05-21T12:44:16.274Z,17.60
2023-05-21T12:45:16.224Z,11.90
2023-05-21T12:46:16.350Z,13.30
2023-05-21T12:47:16.274Z,14.40
2023-05-21T12:48:16.200Z,15.40
2023-05-21T12:49:16.229Z,13.90
2023-05-21T12:50:16.284Z,12.80
2023-05-21T12:51:16.200Z,17.30
2023-05-21T12:52:16.177Z,14.80